DLH17LA MUHA-MMMY
Flight info
| Callsign | DLH17LA |
|---|---|
| Flight time | 2h 42m |
| Altitude | 36000 |
| Route | MUPKI UR522 ALURU DCT NOTEN UT37 SESNO UJ15E RETOS RETOS1B |
| Aircraft | B738/M-SDE2E3FGHIRWXY/LB1 |
Departure
| Time | 2026-04-28 04:57 |
|---|---|
| Airport | José Martí International Airport (MUHA) |
Arrival
| Time | 2026-04-28 07:39 |
|---|---|
| Airport | Monterrey International Airport (MMMY) |
| Time | Latitude | Longitude | Altitude | Speed | Heading |
|---|---|---|---|---|---|
| 2026-04-28 04:36 | 22.98978 | -82.41321 | 218 ft | 0 kts | 139° |
| 2026-04-28 04:45 | 22.98984 | -82.41327 | 223 ft | 4 kts | 141° |
| 2026-04-28 04:45 | 22.99007 | -82.41343 | 219 ft | 4 kts | 163° |
| 2026-04-28 04:45 | 22.99026 | -82.41343 | 222 ft | 4 kts | 237° |
| 2026-04-28 04:45 | 22.99029 | -82.41334 | 218 ft | 1 kts | 259° |
| 2026-04-28 04:46 | 22.99029 | -82.41333 | 218 ft | 0 kts | 259° |
| 2026-04-28 04:50 | 22.99021 | -82.41387 | 219 ft | 17 kts | 251° |
| 2026-04-28 04:51 | 22.98911 | -82.41452 | 221 ft | 22 kts | 148° |
| 2026-04-28 04:51 | 22.98815 | -82.41401 | 218 ft | 16 kts | 202° |
| 2026-04-28 04:51 | 22.98746 | -82.41489 | 221 ft | 15 kts | 236° |
| 2026-04-28 04:51 | 22.98693 | -82.41536 | 218 ft | 9 kts | 169° |
| 2026-04-28 04:52 | 22.98656 | -82.41490 | 223 ft | 8 kts | 99° |
| 2026-04-28 04:52 | 22.98663 | -82.41428 | 218 ft | 8 kts | 86° |
| 2026-04-28 04:52 | 22.98660 | -82.41367 | 218 ft | 8 kts | 93° |
| 2026-04-28 04:52 | 22.98673 | -82.41300 | 220 ft | 11 kts | 66° |
| 2026-04-28 04:53 | 22.98717 | -82.41214 | 221 ft | 16 kts | 56° |
| 2026-04-28 04:53 | 22.98811 | -82.41107 | 220 ft | 23 kts | 28° |
| 2026-04-28 04:53 | 22.98970 | -82.41074 | 218 ft | 23 kts | 13° |
| 2026-04-28 04:53 | 22.99087 | -82.40968 | 218 ft | 22 kts | 55° |
| 2026-04-28 04:54 | 22.99176 | -82.40833 | 218 ft | 22 kts | 53° |
| 2026-04-28 04:54 | 22.99266 | -82.40705 | 220 ft | 21 kts | 55° |
| 2026-04-28 04:54 | 22.99349 | -82.40577 | 221 ft | 20 kts | 53° |
| 2026-04-28 04:54 | 22.99432 | -82.40455 | 224 ft | 20 kts | 55° |
| 2026-04-28 04:55 | 22.99508 | -82.40333 | 220 ft | 19 kts | 56° |
| 2026-04-28 04:55 | 22.99582 | -82.40222 | 218 ft | 15 kts | 59° |
| 2026-04-28 04:55 | 22.99533 | -82.40162 | 222 ft | 15 kts | 189° |
| 2026-04-28 04:55 | 22.99434 | -82.40182 | 218 ft | 14 kts | 195° |
| 2026-04-28 04:56 | 22.99360 | -82.40245 | 218 ft | 13 kts | 230° |
| 2026-04-28 04:56 | 22.99303 | -82.40324 | 223 ft | 16 kts | 236° |
| 2026-04-28 04:56 | 22.99106 | -82.40633 | 220 ft | 91 kts | 234° |
| 2026-04-28 04:56 | 22.98590 | -82.41409 | 222 ft | 160 kts | 235° |
| 2026-04-28 04:57 | 22.97844 | -82.42504 | 663 ft | 182 kts | 233° |
| 2026-04-28 04:57 | 22.97068 | -82.43656 | 1407 ft | 202 kts | 233° |
| 2026-04-28 04:57 | 22.96305 | -82.45010 | 1883 ft | 221 kts | 244° |
| 2026-04-28 04:57 | 22.95729 | -82.46545 | 2296 ft | 222 kts | 249° |
| 2026-04-28 04:58 | 22.95185 | -82.48144 | 2753 ft | 230 kts | 249° |
| 2026-04-28 04:58 | 22.94619 | -82.49812 | 3176 ft | 242 kts | 249° |
| 2026-04-28 04:58 | 22.94012 | -82.51573 | 3650 ft | 256 kts | 249° |
| 2026-04-28 04:58 | 22.93372 | -82.53404 | 4100 ft | 261 kts | 249° |
| 2026-04-28 04:59 | 22.92714 | -82.55263 | 4546 ft | 265 kts | 249° |
| 2026-04-28 04:59 | 22.92047 | -82.57134 | 4997 ft | 266 kts | 249° |
| 2026-04-28 04:59 | 22.91376 | -82.59003 | 5422 ft | 266 kts | 249° |
| 2026-04-28 04:59 | 22.90703 | -82.60869 | 5858 ft | 265 kts | 249° |
| 2026-04-28 05:00 | 22.90028 | -82.62733 | 6303 ft | 265 kts | 249° |
| 2026-04-28 05:00 | 22.89351 | -82.64600 | 6731 ft | 267 kts | 249° |
| 2026-04-28 05:00 | 22.88668 | -82.66480 | 7153 ft | 269 kts | 249° |
| 2026-04-28 05:00 | 22.87978 | -82.68374 | 7582 ft | 272 kts | 249° |
| 2026-04-28 05:01 | 22.87279 | -82.70293 | 8023 ft | 275 kts | 249° |
| 2026-04-28 05:01 | 22.86579 | -82.72212 | 8461 ft | 278 kts | 249° |
| 2026-04-28 05:01 | 22.85865 | -82.74169 | 8905 ft | 280 kts | 249° |
| 2026-04-28 05:01 | 22.85134 | -82.76172 | 9380 ft | 290 kts | 249° |
| 2026-04-28 05:02 | 22.84376 | -82.78246 | 9839 ft | 302 kts | 249° |
| 2026-04-28 05:02 | 22.83582 | -82.80419 | 10127 ft | 316 kts | 249° |
| 2026-04-28 05:02 | 22.82773 | -82.82628 | 10390 ft | 313 kts | 249° |
| 2026-04-28 05:02 | 22.81974 | -82.84814 | 10665 ft | 311 kts | 249° |
| 2026-04-28 05:03 | 22.81173 | -82.87001 | 10956 ft | 313 kts | 249° |
| 2026-04-28 05:03 | 22.80366 | -82.89206 | 11243 ft | 316 kts | 249° |
| 2026-04-28 05:03 | 22.79553 | -82.91421 | 11523 ft | 317 kts | 249° |
| 2026-04-28 05:03 | 22.78737 | -82.93645 | 11823 ft | 318 kts | 250° |
| 2026-04-28 05:04 | 22.77917 | -82.95877 | 12111 ft | 319 kts | 250° |
| 2026-04-28 05:04 | 22.77095 | -82.98121 | 12387 ft | 320 kts | 250° |
| 2026-04-28 05:04 | 22.76273 | -83.00360 | 12696 ft | 321 kts | 250° |
| 2026-04-28 05:04 | 22.75457 | -83.02582 | 12990 ft | 322 kts | 250° |
| 2026-04-28 05:05 | 22.74625 | -83.04842 | 13287 ft | 323 kts | 250° |
| 2026-04-28 05:05 | 22.73788 | -83.07111 | 13601 ft | 325 kts | 250° |
| 2026-04-28 05:05 | 22.72944 | -83.09388 | 13905 ft | 327 kts | 250° |
| 2026-04-28 05:05 | 22.72092 | -83.11680 | 14181 ft | 329 kts | 250° |
| 2026-04-28 05:06 | 22.71227 | -83.13993 | 14456 ft | 331 kts | 250° |
| 2026-04-28 05:06 | 22.70357 | -83.16313 | 14734 ft | 333 kts | 250° |
| 2026-04-28 05:06 | 22.69478 | -83.18642 | 15020 ft | 335 kts | 250° |
| 2026-04-28 05:06 | 22.68604 | -83.20948 | 15297 ft | 336 kts | 250° |
| 2026-04-28 05:07 | 22.67711 | -83.23292 | 15581 ft | 337 kts | 250° |
| 2026-04-28 05:07 | 22.66810 | -83.25637 | 15869 ft | 338 kts | 250° |
| 2026-04-28 05:07 | 22.65900 | -83.27997 | 16156 ft | 339 kts | 250° |
| 2026-04-28 05:07 | 22.64987 | -83.30353 | 16442 ft | 340 kts | 250° |
| 2026-04-28 05:08 | 22.64066 | -83.32719 | 16741 ft | 341 kts | 250° |
| 2026-04-28 05:08 | 22.63140 | -83.35082 | 17044 ft | 342 kts | 250° |
| 2026-04-28 05:08 | 22.62203 | -83.37459 | 17342 ft | 344 kts | 250° |
| 2026-04-28 05:08 | 22.61262 | -83.39838 | 17645 ft | 345 kts | 250° |
| 2026-04-28 05:09 | 22.60305 | -83.42240 | 17958 ft | 347 kts | 250° |
| 2026-04-28 05:09 | 22.59345 | -83.44638 | 18267 ft | 349 kts | 250° |
| 2026-04-28 05:09 | 22.58372 | -83.47053 | 18548 ft | 350 kts | 250° |
| 2026-04-28 05:09 | 22.57395 | -83.49470 | 18811 ft | 352 kts | 250° |
| 2026-04-28 05:10 | 22.56407 | -83.51906 | 19088 ft | 353 kts | 250° |
| 2026-04-28 05:10 | 22.55431 | -83.54306 | 19354 ft | 354 kts | 250° |
| 2026-04-28 05:10 | 22.54433 | -83.56742 | 19635 ft | 355 kts | 250° |
| 2026-04-28 05:10 | 22.53426 | -83.59194 | 19912 ft | 356 kts | 250° |
| 2026-04-28 05:11 | 22.52416 | -83.61643 | 20196 ft | 356 kts | 250° |
| 2026-04-28 05:11 | 22.51403 | -83.64090 | 20473 ft | 357 kts | 250° |
| 2026-04-28 05:11 | 22.50383 | -83.66543 | 20758 ft | 358 kts | 250° |
| 2026-04-28 05:11 | 22.49358 | -83.68998 | 21050 ft | 358 kts | 250° |
| 2026-04-28 05:12 | 22.48330 | -83.71453 | 21346 ft | 359 kts | 250° |
| 2026-04-28 05:12 | 22.47294 | -83.73918 | 21649 ft | 360 kts | 250° |
| 2026-04-28 05:12 | 22.46254 | -83.76389 | 21937 ft | 361 kts | 250° |
| 2026-04-28 05:12 | 22.45209 | -83.78858 | 22236 ft | 362 kts | 250° |
| 2026-04-28 05:13 | 22.44157 | -83.81336 | 22541 ft | 363 kts | 250° |
| 2026-04-28 05:13 | 22.43100 | -83.83820 | 22852 ft | 364 kts | 250° |
| 2026-04-28 05:13 | 22.42037 | -83.86312 | 23165 ft | 366 kts | 250° |
| 2026-04-28 05:13 | 22.40976 | -83.88787 | 23473 ft | 368 kts | 250° |
| 2026-04-28 05:14 | 22.39894 | -83.91313 | 23773 ft | 370 kts | 250° |
| 2026-04-28 05:14 | 22.38811 | -83.93847 | 24032 ft | 372 kts | 250° |
| 2026-04-28 05:14 | 22.37723 | -83.96392 | 24293 ft | 374 kts | 250° |
| 2026-04-28 05:14 | 22.36632 | -83.98953 | 24561 ft | 375 kts | 250° |
| 2026-04-28 05:15 | 22.35552 | -84.01483 | 24836 ft | 377 kts | 250° |
| 2026-04-28 05:15 | 22.34451 | -84.04067 | 25103 ft | 378 kts | 250° |
| 2026-04-28 05:15 | 22.33349 | -84.06654 | 25376 ft | 380 kts | 250° |
| 2026-04-28 05:15 | 22.32242 | -84.09251 | 25664 ft | 381 kts | 250° |
| 2026-04-28 05:16 | 22.31133 | -84.11859 | 25931 ft | 383 kts | 250° |
| 2026-04-28 05:16 | 22.30018 | -84.14482 | 26214 ft | 384 kts | 250° |
| 2026-04-28 05:16 | 22.28904 | -84.17105 | 26503 ft | 385 kts | 250° |
| 2026-04-28 05:17 | 22.26662 | -84.22383 | 27082 ft | 387 kts | 250° |
| 2026-04-28 05:17 | 22.25537 | -84.25028 | 27373 ft | 387 kts | 250° |
| 2026-04-28 05:17 | 22.24426 | -84.27640 | 27672 ft | 388 kts | 250° |
| 2026-04-28 05:17 | 22.23300 | -84.30283 | 27966 ft | 388 kts | 250° |
| 2026-04-28 05:18 | 22.22539 | -84.32070 | 28165 ft | 388 kts | 250° |
| 2026-04-28 05:18 | 22.21412 | -84.34710 | 28469 ft | 387 kts | 250° |
| 2026-04-28 05:18 | 22.20284 | -84.37350 | 28770 ft | 386 kts | 250° |
| 2026-04-28 05:18 | 22.19170 | -84.39950 | 29071 ft | 385 kts | 250° |
| 2026-04-28 05:19 | 22.18047 | -84.42565 | 29382 ft | 383 kts | 250° |
| 2026-04-28 05:19 | 22.16928 | -84.45165 | 29694 ft | 381 kts | 250° |
| 2026-04-28 05:19 | 22.15448 | -84.48590 | 30104 ft | 378 kts | 250° |
| 2026-04-28 05:19 | 22.14338 | -84.51154 | 30376 ft | 376 kts | 250° |
| 2026-04-28 05:20 | 22.13595 | -84.52878 | 30560 ft | 374 kts | 250° |
| 2026-04-28 05:20 | 22.12504 | -84.55416 | 30827 ft | 372 kts | 250° |
| 2026-04-28 05:20 | 22.11422 | -84.57944 | 31104 ft | 370 kts | 250° |
| 2026-04-28 05:20 | 22.10350 | -84.60460 | 31379 ft | 370 kts | 250° |
| 2026-04-28 05:21 | 22.09280 | -84.62982 | 31654 ft | 368 kts | 250° |
| 2026-04-28 05:21 | 22.08237 | -84.65456 | 31939 ft | 367 kts | 250° |
| 2026-04-28 05:21 | 22.07183 | -84.67963 | 32221 ft | 365 kts | 250° |
| 2026-04-28 05:21 | 22.06143 | -84.70457 | 32509 ft | 363 kts | 250° |
| 2026-04-28 05:22 | 22.05112 | -84.72942 | 32752 ft | 363 kts | 250° |
| 2026-04-28 05:22 | 22.04078 | -84.75444 | 32836 ft | 367 kts | 250° |
| 2026-04-28 05:22 | 22.02006 | -84.80487 | 33092 ft | 372 kts | 250° |
| 2026-04-28 05:23 | 22.00991 | -84.83043 | 33324 ft | 369 kts | 257° |
| 2026-04-28 05:23 | 22.00674 | -84.85729 | 33362 ft | 362 kts | 281° |
| 2026-04-28 05:23 | 22.01444 | -84.88299 | 33199 ft | 365 kts | 304° |
| 2026-04-28 05:23 | 22.03198 | -84.90292 | 32998 ft | 373 kts | 329° |
| 2026-04-28 05:24 | 22.05607 | -84.91216 | 33332 ft | 367 kts | 353° |
| 2026-04-28 05:24 | 22.08112 | -84.90956 | 33767 ft | 360 kts | 10° |
| 2026-04-28 05:24 | 22.10547 | -84.90601 | 34021 ft | 351 kts | 356° |
| 2026-04-28 05:24 | 22.12994 | -84.90791 | 33997 ft | 355 kts | 348° |
| 2026-04-28 05:25 | 22.15450 | -84.91303 | 33806 ft | 364 kts | 344° |
| 2026-04-28 05:25 | 22.17943 | -84.92001 | 33643 ft | 374 kts | 342° |
| 2026-04-28 05:25 | 22.20450 | -84.92790 | 33484 ft | 384 kts | 341° |
| 2026-04-28 05:25 | 22.23033 | -84.93642 | 33479 ft | 390 kts | 341° |
| 2026-04-28 05:26 | 22.28291 | -84.95403 | 33573 ft | 399 kts | 341° |
| 2026-04-28 05:26 | 22.33665 | -84.97198 | 33655 ft | 409 kts | 341° |
| 2026-04-28 05:27 | 22.39134 | -84.99017 | 33735 ft | 417 kts | 341° |
| 2026-04-28 05:27 | 22.44741 | -85.00882 | 33824 ft | 426 kts | 341° |
| 2026-04-28 05:28 | 22.50453 | -85.02784 | 33906 ft | 433 kts | 341° |
| 2026-04-28 05:28 | 22.53296 | -85.03902 | 33925 ft | 435 kts | 330° |
| 2026-04-28 05:28 | 22.55738 | -85.05815 | 33995 ft | 436 kts | 315° |
| 2026-04-28 05:29 | 22.57614 | -85.08392 | 34166 ft | 436 kts | 300° |
| 2026-04-28 05:29 | 22.58824 | -85.11404 | 34342 ft | 438 kts | 288° |
| 2026-04-28 05:29 | 22.59359 | -85.14660 | 34465 ft | 442 kts | 273° |
| 2026-04-28 05:29 | 22.59114 | -85.17955 | 34582 ft | 446 kts | 264° |
| 2026-04-28 05:30 | 22.58616 | -85.21268 | 34743 ft | 446 kts | 263° |
| 2026-04-28 05:30 | 22.58073 | -85.24575 | 34904 ft | 446 kts | 263° |
| 2026-04-28 05:30 | 22.57530 | -85.27880 | 35061 ft | 446 kts | 263° |
| 2026-04-28 05:30 | 22.57002 | -85.31193 | 35227 ft | 445 kts | 263° |
| 2026-04-28 05:31 | 22.56493 | -85.34494 | 35387 ft | 445 kts | 263° |
| 2026-04-28 05:31 | 22.55994 | -85.37797 | 35545 ft | 444 kts | 263° |
| 2026-04-28 05:31 | 22.55499 | -85.41106 | 35683 ft | 444 kts | 263° |
| 2026-04-28 05:31 | 22.55007 | -85.44401 | 35829 ft | 444 kts | 263° |
| 2026-04-28 05:32 | 22.54514 | -85.47700 | 35981 ft | 443 kts | 263° |
| 2026-04-28 05:32 | 22.54020 | -85.50990 | 36037 ft | 445 kts | 263° |
| 2026-04-28 05:32 | 22.53027 | -85.57581 | 36045 ft | 445 kts | 263° |
| 2026-04-28 05:33 | 22.52032 | -85.64184 | 36042 ft | 444 kts | 263° |
| 2026-04-28 05:33 | 22.51038 | -85.70777 | 36043 ft | 443 kts | 263° |
| 2026-04-28 05:34 | 22.50050 | -85.77316 | 36043 ft | 443 kts | 263° |
| 2026-04-28 05:34 | 22.49055 | -85.83879 | 36044 ft | 442 kts | 263° |
| 2026-04-28 05:35 | 22.48058 | -85.90441 | 36037 ft | 442 kts | 263° |
| 2026-04-28 05:35 | 22.47057 | -85.97013 | 36040 ft | 442 kts | 263° |
| 2026-04-28 05:36 | 22.46932 | -86.03601 | 36039 ft | 437 kts | 279° |
| 2026-04-28 05:36 | 22.47752 | -86.10082 | 36038 ft | 438 kts | 279° |
| 2026-04-28 05:37 | 22.48598 | -86.16608 | 36044 ft | 439 kts | 279° |
| 2026-04-28 05:37 | 22.49416 | -86.23158 | 36041 ft | 440 kts | 279° |
| 2026-04-28 05:38 | 22.50214 | -86.29721 | 36039 ft | 440 kts | 279° |
| 2026-04-28 05:38 | 22.51006 | -86.36296 | 36042 ft | 441 kts | 279° |
| 2026-04-28 05:39 | 22.51795 | -86.42887 | 36040 ft | 442 kts | 279° |
| 2026-04-28 05:39 | 22.52580 | -86.49456 | 36044 ft | 442 kts | 279° |
| 2026-04-28 05:40 | 22.53367 | -86.56063 | 36037 ft | 443 kts | 279° |
| 2026-04-28 05:40 | 22.54152 | -86.62676 | 36040 ft | 443 kts | 279° |
| 2026-04-28 05:41 | 22.54934 | -86.69281 | 36036 ft | 442 kts | 279° |
| 2026-04-28 05:41 | 22.55712 | -86.75885 | 36036 ft | 442 kts | 279° |
| 2026-04-28 05:42 | 22.56488 | -86.82490 | 36038 ft | 442 kts | 279° |
| 2026-04-28 05:42 | 22.57260 | -86.89087 | 36038 ft | 441 kts | 279° |
| 2026-04-28 05:43 | 22.58023 | -86.95634 | 36037 ft | 441 kts | 279° |
| 2026-04-28 05:43 | 22.58789 | -87.02220 | 36037 ft | 441 kts | 279° |
| 2026-04-28 05:44 | 22.59551 | -87.08804 | 36035 ft | 441 kts | 279° |
| 2026-04-28 05:44 | 22.60312 | -87.15400 | 36036 ft | 440 kts | 279° |
| 2026-04-28 05:45 | 22.61069 | -87.21990 | 36035 ft | 440 kts | 279° |
| 2026-04-28 05:45 | 22.61818 | -87.28528 | 36035 ft | 440 kts | 279° |
| 2026-04-28 05:46 | 22.62567 | -87.35092 | 36035 ft | 439 kts | 279° |
| 2026-04-28 05:46 | 22.63314 | -87.41667 | 36035 ft | 438 kts | 279° |
| 2026-04-28 05:47 | 22.64056 | -87.48215 | 36032 ft | 438 kts | 279° |
| 2026-04-28 05:47 | 22.64790 | -87.54722 | 36035 ft | 438 kts | 279° |
| 2026-04-28 05:48 | 22.65526 | -87.61264 | 36033 ft | 437 kts | 279° |
| 2026-04-28 05:48 | 22.66259 | -87.67811 | 36033 ft | 437 kts | 279° |
| 2026-04-28 05:49 | 22.66989 | -87.74352 | 36029 ft | 437 kts | 279° |
| 2026-04-28 05:49 | 22.67711 | -87.80846 | 36029 ft | 437 kts | 279° |
| 2026-04-28 05:50 | 22.68435 | -87.87386 | 36030 ft | 437 kts | 279° |
| 2026-04-28 05:50 | 22.69158 | -87.93932 | 36029 ft | 437 kts | 279° |
| 2026-04-28 05:51 | 22.69877 | -88.00476 | 36028 ft | 438 kts | 279° |
| 2026-04-28 05:51 | 22.70594 | -88.07026 | 36023 ft | 438 kts | 278° |
| 2026-04-28 05:52 | 22.71310 | -88.13584 | 36026 ft | 438 kts | 278° |
| 2026-04-28 05:52 | 22.72017 | -88.20095 | 36025 ft | 438 kts | 279° |
| 2026-04-28 05:53 | 22.72731 | -88.26692 | 36022 ft | 438 kts | 278° |
| 2026-04-28 05:53 | 22.73434 | -88.33209 | 36026 ft | 438 kts | 278° |
| 2026-04-28 05:54 | 22.74139 | -88.39772 | 36024 ft | 438 kts | 278° |
| 2026-04-28 05:54 | 22.74841 | -88.46334 | 36023 ft | 438 kts | 278° |
| 2026-04-28 05:55 | 22.75541 | -88.52906 | 36024 ft | 438 kts | 278° |
| 2026-04-28 05:55 | 22.76237 | -88.59458 | 36021 ft | 438 kts | 278° |
| 2026-04-28 05:56 | 22.76926 | -88.65977 | 36021 ft | 437 kts | 278° |
| 2026-04-28 05:56 | 22.77616 | -88.72529 | 36022 ft | 437 kts | 279° |
| 2026-04-28 05:57 | 22.78302 | -88.79073 | 36019 ft | 437 kts | 279° |
| 2026-04-28 05:57 | 22.78986 | -88.85613 | 36020 ft | 436 kts | 278° |
| 2026-04-28 05:58 | 22.79666 | -88.92148 | 36019 ft | 436 kts | 279° |
| 2026-04-28 05:58 | 22.80343 | -88.98681 | 36019 ft | 435 kts | 278° |
| 2026-04-28 05:59 | 22.81016 | -89.05206 | 36017 ft | 435 kts | 279° |
| 2026-04-28 05:59 | 22.81683 | -89.11691 | 36019 ft | 434 kts | 279° |
| 2026-04-28 06:00 | 22.82350 | -89.18204 | 36018 ft | 434 kts | 279° |
| 2026-04-28 06:00 | 22.83014 | -89.24711 | 36017 ft | 434 kts | 279° |
| 2026-04-28 06:01 | 22.83674 | -89.31214 | 36016 ft | 433 kts | 279° |
| 2026-04-28 06:01 | 22.84330 | -89.37703 | 36015 ft | 433 kts | 279° |
| 2026-04-28 06:02 | 22.84980 | -89.44150 | 36017 ft | 433 kts | 279° |
| 2026-04-28 06:02 | 22.85631 | -89.50639 | 36016 ft | 432 kts | 279° |
| 2026-04-28 06:03 | 22.86278 | -89.57121 | 36012 ft | 432 kts | 279° |
| 2026-04-28 06:03 | 22.86923 | -89.63600 | 36013 ft | 432 kts | 279° |
| 2026-04-28 06:04 | 22.87566 | -89.70086 | 36010 ft | 431 kts | 279° |
| 2026-04-28 06:04 | 22.88200 | -89.76519 | 36004 ft | 431 kts | 279° |
| 2026-04-28 06:05 | 22.88836 | -89.82992 | 36013 ft | 431 kts | 279° |
| 2026-04-28 06:05 | 22.89362 | -89.88365 | 36010 ft | 431 kts | 279° |
| 2026-04-28 06:06 | 22.89993 | -89.94836 | 36009 ft | 431 kts | 279° |
| 2026-04-28 06:06 | 22.90622 | -90.01306 | 36006 ft | 431 kts | 279° |
| 2026-04-28 06:07 | 22.91248 | -90.07786 | 36004 ft | 431 kts | 279° |
| 2026-04-28 06:07 | 22.91867 | -90.14222 | 36003 ft | 431 kts | 279° |
| 2026-04-28 06:08 | 22.92488 | -90.20695 | 36001 ft | 431 kts | 279° |
| 2026-04-28 06:08 | 22.93106 | -90.27171 | 36005 ft | 431 kts | 278° |
| 2026-04-28 06:09 | 22.93721 | -90.33649 | 36003 ft | 431 kts | 279° |
| 2026-04-28 06:09 | 22.94334 | -90.40124 | 35999 ft | 431 kts | 279° |
| 2026-04-28 06:10 | 22.94944 | -90.46604 | 36001 ft | 432 kts | 279° |
| 2026-04-28 06:10 | 22.95548 | -90.53045 | 35996 ft | 432 kts | 279° |
| 2026-04-28 06:11 | 22.96153 | -90.59528 | 35996 ft | 432 kts | 279° |
| 2026-04-28 06:11 | 22.96756 | -90.66016 | 35991 ft | 432 kts | 279° |
| 2026-04-28 06:12 | 22.97356 | -90.72501 | 35991 ft | 432 kts | 279° |
| 2026-04-28 06:12 | 22.97955 | -90.78994 | 35994 ft | 432 kts | 279° |
| 2026-04-28 06:13 | 22.98550 | -90.85486 | 35994 ft | 432 kts | 279° |
| 2026-04-28 06:13 | 22.99143 | -90.91987 | 35992 ft | 432 kts | 279° |
| 2026-04-28 06:14 | 22.99730 | -90.98444 | 35993 ft | 432 kts | 279° |
| 2026-04-28 06:14 | 23.00317 | -91.04937 | 35988 ft | 432 kts | 279° |
| 2026-04-28 06:15 | 23.00902 | -91.11436 | 35986 ft | 432 kts | 279° |
| 2026-04-28 06:15 | 23.01484 | -91.17924 | 35985 ft | 431 kts | 279° |
| 2026-04-28 06:16 | 23.02062 | -91.24401 | 35982 ft | 431 kts | 279° |
| 2026-04-28 06:16 | 23.02637 | -91.30879 | 35984 ft | 431 kts | 279° |
| 2026-04-28 06:17 | 23.03205 | -91.37307 | 35983 ft | 430 kts | 279° |
| 2026-04-28 06:18 | 23.04057 | -91.47007 | 35976 ft | 430 kts | 279° |
| 2026-04-28 06:18 | 23.04622 | -91.53478 | 35976 ft | 429 kts | 279° |
| 2026-04-28 06:19 | 23.05184 | -91.59936 | 35977 ft | 429 kts | 279° |
| 2026-04-28 06:19 | 23.05741 | -91.66382 | 35975 ft | 429 kts | 279° |
| 2026-04-28 06:20 | 23.06293 | -91.72791 | 35975 ft | 428 kts | 279° |
| 2026-04-28 06:20 | 23.06846 | -91.79237 | 35975 ft | 428 kts | 279° |
| 2026-04-28 06:21 | 23.07395 | -91.85678 | 35976 ft | 428 kts | 279° |
| 2026-04-28 06:21 | 23.07941 | -91.92115 | 35971 ft | 428 kts | 279° |
| 2026-04-28 06:22 | 23.08484 | -91.98543 | 35973 ft | 428 kts | 279° |
| 2026-04-28 06:22 | 23.09025 | -92.04981 | 35968 ft | 428 kts | 279° |
| 2026-04-28 06:23 | 23.09563 | -92.11413 | 35969 ft | 427 kts | 279° |
| 2026-04-28 06:23 | 23.10099 | -92.17846 | 35969 ft | 427 kts | 278° |
| 2026-04-28 06:24 | 23.10631 | -92.24274 | 35968 ft | 427 kts | 278° |
| 2026-04-28 06:24 | 23.11158 | -92.30664 | 35966 ft | 427 kts | 278° |
| 2026-04-28 06:25 | 23.11685 | -92.37092 | 35968 ft | 427 kts | 278° |
| 2026-04-28 06:25 | 23.12210 | -92.43536 | 35966 ft | 427 kts | 278° |
| 2026-04-28 06:26 | 23.12729 | -92.49923 | 35962 ft | 427 kts | 278° |
| 2026-04-28 06:26 | 23.13248 | -92.56352 | 35963 ft | 427 kts | 278° |
| 2026-04-28 06:27 | 23.13765 | -92.62789 | 35961 ft | 427 kts | 278° |
| 2026-04-28 06:27 | 23.14279 | -92.69216 | 35957 ft | 427 kts | 278° |
| 2026-04-28 06:28 | 23.14790 | -92.75641 | 35955 ft | 427 kts | 278° |
| 2026-04-28 06:28 | 23.15295 | -92.82021 | 35956 ft | 427 kts | 278° |
| 2026-04-28 06:29 | 23.15801 | -92.88453 | 35956 ft | 427 kts | 278° |
| 2026-04-28 06:29 | 23.16304 | -92.94877 | 35957 ft | 427 kts | 278° |
| 2026-04-28 06:30 | 23.16805 | -93.01309 | 35953 ft | 427 kts | 278° |
| 2026-04-28 06:30 | 23.17303 | -93.07736 | 35951 ft | 427 kts | 278° |
| 2026-04-28 06:31 | 23.17799 | -93.14173 | 35951 ft | 427 kts | 278° |
| 2026-04-28 06:31 | 23.18288 | -93.20555 | 35947 ft | 427 kts | 278° |
| 2026-04-28 06:32 | 23.18778 | -93.26986 | 35947 ft | 426 kts | 278° |
| 2026-04-28 06:32 | 23.19265 | -93.33415 | 35944 ft | 427 kts | 278° |
| 2026-04-28 06:33 | 23.19751 | -93.39848 | 35946 ft | 426 kts | 278° |
| 2026-04-28 06:33 | 23.20233 | -93.46279 | 35945 ft | 426 kts | 278° |
| 2026-04-28 06:34 | 23.20712 | -93.52701 | 35943 ft | 426 kts | 278° |
| 2026-04-28 06:34 | 23.21185 | -93.59081 | 35939 ft | 426 kts | 278° |
| 2026-04-28 06:35 | 23.21660 | -93.65516 | 35938 ft | 426 kts | 278° |
| 2026-04-28 06:35 | 23.22132 | -93.71949 | 35937 ft | 426 kts | 278° |
| 2026-04-28 06:36 | 23.22601 | -93.78377 | 35934 ft | 426 kts | 278° |
| 2026-04-28 06:36 | 23.23067 | -93.84805 | 35935 ft | 426 kts | 278° |
| 2026-04-28 06:37 | 23.23527 | -93.91189 | 35934 ft | 426 kts | 278° |
| 2026-04-28 06:37 | 23.23988 | -93.97614 | 35929 ft | 426 kts | 278° |
| 2026-04-28 06:38 | 23.24446 | -94.04038 | 35928 ft | 426 kts | 278° |
| 2026-04-28 06:38 | 23.24902 | -94.10464 | 35923 ft | 426 kts | 278° |
| 2026-04-28 06:39 | 23.25354 | -94.16884 | 35926 ft | 426 kts | 278° |
| 2026-04-28 06:39 | 23.25805 | -94.23315 | 35922 ft | 426 kts | 278° |
| 2026-04-28 06:40 | 23.26252 | -94.29744 | 35921 ft | 426 kts | 278° |
| 2026-04-28 06:40 | 23.26698 | -94.36174 | 35920 ft | 426 kts | 278° |
| 2026-04-28 06:41 | 23.27138 | -94.42574 | 35919 ft | 426 kts | 278° |
| 2026-04-28 06:41 | 23.27578 | -94.49005 | 35916 ft | 426 kts | 278° |
| 2026-04-28 06:42 | 23.28016 | -94.55433 | 35917 ft | 426 kts | 278° |
| 2026-04-28 06:42 | 23.28597 | -94.61843 | 35910 ft | 423 kts | 285° |
| 2026-04-28 06:43 | 23.30442 | -94.67838 | 35929 ft | 417 kts | 296° |
| 2026-04-28 06:43 | 23.32739 | -94.73638 | 35915 ft | 417 kts | 296° |
| 2026-04-28 06:44 | 23.35028 | -94.79455 | 35915 ft | 417 kts | 296° |
| 2026-04-28 06:44 | 23.37291 | -94.85276 | 35915 ft | 418 kts | 296° |
| 2026-04-28 06:45 | 23.39529 | -94.91065 | 35916 ft | 417 kts | 296° |
| 2026-04-28 06:45 | 23.41780 | -94.96900 | 35914 ft | 417 kts | 296° |
| 2026-04-28 06:46 | 23.44024 | -95.02723 | 35916 ft | 417 kts | 296° |
| 2026-04-28 06:46 | 23.46267 | -95.08552 | 35913 ft | 417 kts | 296° |
| 2026-04-28 06:47 | 23.48507 | -95.14379 | 35915 ft | 417 kts | 296° |
| 2026-04-28 06:47 | 23.50743 | -95.20204 | 35915 ft | 416 kts | 296° |
| 2026-04-28 06:48 | 23.52973 | -95.26022 | 35918 ft | 416 kts | 296° |
| 2026-04-28 06:48 | 23.55203 | -95.31845 | 35918 ft | 416 kts | 296° |
| 2026-04-28 06:49 | 23.57412 | -95.37623 | 35918 ft | 415 kts | 296° |
| 2026-04-28 06:49 | 23.59636 | -95.43447 | 35918 ft | 415 kts | 296° |
| 2026-04-28 06:50 | 23.61852 | -95.49258 | 35920 ft | 415 kts | 296° |
| 2026-04-28 06:50 | 23.64066 | -95.55070 | 35919 ft | 414 kts | 296° |
| 2026-04-28 06:51 | 23.66274 | -95.60877 | 35920 ft | 414 kts | 295° |
| 2026-04-28 06:51 | 23.68464 | -95.66640 | 35917 ft | 414 kts | 295° |
| 2026-04-28 06:52 | 23.70665 | -95.72440 | 35917 ft | 414 kts | 295° |
| 2026-04-28 06:52 | 23.72507 | -95.77301 | 35917 ft | 413 kts | 295° |
| 2026-04-28 06:53 | 23.74690 | -95.83068 | 35913 ft | 413 kts | 295° |
| 2026-04-28 06:53 | 23.76884 | -95.88873 | 35914 ft | 413 kts | 295° |
| 2026-04-28 06:54 | 23.79074 | -95.94675 | 35918 ft | 413 kts | 295° |
| 2026-04-28 06:54 | 23.81258 | -96.00469 | 35918 ft | 413 kts | 295° |
| 2026-04-28 06:55 | 23.83448 | -96.06286 | 35915 ft | 413 kts | 295° |
| 2026-04-28 06:55 | 23.85632 | -96.12095 | 35913 ft | 413 kts | 295° |
| 2026-04-28 06:56 | 23.87799 | -96.17867 | 35920 ft | 413 kts | 295° |
| 2026-04-28 06:56 | 23.89975 | -96.23671 | 35914 ft | 413 kts | 295° |
| 2026-04-28 06:57 | 23.92149 | -96.29476 | 35918 ft | 412 kts | 295° |
| 2026-04-28 06:57 | 23.94318 | -96.35277 | 35915 ft | 412 kts | 295° |
| 2026-04-28 06:58 | 23.96483 | -96.41074 | 35914 ft | 412 kts | 295° |
| 2026-04-28 06:58 | 23.98647 | -96.46878 | 35916 ft | 411 kts | 295° |
| 2026-04-28 06:59 | 24.00805 | -96.52672 | 35916 ft | 411 kts | 295° |
| 2026-04-28 06:59 | 24.02959 | -96.58463 | 35915 ft | 410 kts | 295° |
| 2026-04-28 07:00 | 24.05095 | -96.64212 | 35915 ft | 410 kts | 295° |
| 2026-04-28 07:00 | 24.07235 | -96.69984 | 35915 ft | 409 kts | 295° |
| 2026-04-28 07:01 | 24.09371 | -96.75757 | 35918 ft | 409 kts | 295° |
| 2026-04-28 07:01 | 24.11504 | -96.81531 | 35915 ft | 408 kts | 295° |
| 2026-04-28 07:02 | 24.13631 | -96.87295 | 35917 ft | 408 kts | 295° |
| 2026-04-28 07:02 | 24.15743 | -96.93024 | 35915 ft | 408 kts | 295° |
| 2026-04-28 07:03 | 24.17861 | -96.98779 | 35915 ft | 407 kts | 295° |
| 2026-04-28 07:03 | 24.19977 | -97.04537 | 35914 ft | 407 kts | 295° |
| 2026-04-28 07:04 | 24.22093 | -97.10302 | 35913 ft | 407 kts | 295° |
| 2026-04-28 07:04 | 24.24203 | -97.16059 | 35912 ft | 407 kts | 295° |
| 2026-04-28 07:05 | 24.26297 | -97.21781 | 35911 ft | 406 kts | 295° |
| 2026-04-28 07:05 | 24.28398 | -97.27528 | 35913 ft | 406 kts | 295° |
| 2026-04-28 07:06 | 24.30498 | -97.33280 | 35914 ft | 406 kts | 294° |
| 2026-04-28 07:06 | 24.32595 | -97.39032 | 35910 ft | 406 kts | 294° |
| 2026-04-28 07:07 | 24.34693 | -97.44795 | 35910 ft | 406 kts | 294° |
| 2026-04-28 07:07 | 24.36781 | -97.50539 | 35908 ft | 406 kts | 294° |
| 2026-04-28 07:08 | 24.38869 | -97.56292 | 35904 ft | 405 kts | 294° |
| 2026-04-28 07:08 | 24.40953 | -97.62043 | 35905 ft | 405 kts | 294° |
| 2026-04-28 07:09 | 24.43021 | -97.67756 | 35906 ft | 405 kts | 294° |
| 2026-04-28 07:09 | 24.45099 | -97.73506 | 35905 ft | 405 kts | 294° |
| 2026-04-28 07:10 | 24.47171 | -97.79246 | 35903 ft | 404 kts | 294° |
| 2026-04-28 07:10 | 24.49244 | -97.84999 | 35905 ft | 404 kts | 294° |
| 2026-04-28 07:11 | 24.51307 | -97.90731 | 35902 ft | 404 kts | 294° |
| 2026-04-28 07:11 | 24.53356 | -97.96431 | 35844 ft | 404 kts | 294° |
| 2026-04-28 07:11 | 24.54398 | -97.99329 | 35311 ft | 410 kts | 294° |
| 2026-04-28 07:12 | 24.55438 | -98.02228 | 34853 ft | 405 kts | 294° |
| 2026-04-28 07:12 | 24.56464 | -98.05094 | 34388 ft | 401 kts | 294° |
| 2026-04-28 07:12 | 24.57481 | -98.07934 | 33944 ft | 398 kts | 294° |
| 2026-04-28 07:12 | 24.58494 | -98.10764 | 33421 ft | 396 kts | 294° |
| 2026-04-28 07:13 | 24.59501 | -98.13577 | 32922 ft | 394 kts | 293° |
| 2026-04-28 07:13 | 24.60500 | -98.16370 | 32410 ft | 392 kts | 293° |
| 2026-04-28 07:13 | 24.61497 | -98.19157 | 31916 ft | 391 kts | 292° |
| 2026-04-28 07:13 | 24.62490 | -98.21936 | 31422 ft | 389 kts | 292° |
| 2026-04-28 07:14 | 24.63477 | -98.24702 | 30956 ft | 388 kts | 291° |
| 2026-04-28 07:14 | 24.64462 | -98.27462 | 30488 ft | 387 kts | 291° |
| 2026-04-28 07:14 | 24.65434 | -98.30190 | 30032 ft | 386 kts | 291° |
| 2026-04-28 07:14 | 24.66413 | -98.32938 | 29503 ft | 385 kts | 290° |
| 2026-04-28 07:15 | 24.67389 | -98.35682 | 28971 ft | 384 kts | 291° |
| 2026-04-28 07:15 | 24.68359 | -98.38409 | 28449 ft | 383 kts | 290° |
| 2026-04-28 07:15 | 24.69329 | -98.41138 | 27944 ft | 382 kts | 290° |
| 2026-04-28 07:15 | 24.70293 | -98.43852 | 27443 ft | 381 kts | 290° |
| 2026-04-28 07:16 | 24.71257 | -98.46568 | 26950 ft | 380 kts | 290° |
| 2026-04-28 07:16 | 24.72217 | -98.49274 | 26458 ft | 379 kts | 290° |
| 2026-04-28 07:16 | 24.73162 | -98.51939 | 25991 ft | 379 kts | 290° |
| 2026-04-28 07:16 | 24.74117 | -98.54636 | 25524 ft | 378 kts | 290° |
| 2026-04-28 07:17 | 24.75073 | -98.57336 | 25061 ft | 377 kts | 290° |
| 2026-04-28 07:17 | 24.76026 | -98.60029 | 24608 ft | 377 kts | 290° |
| 2026-04-28 07:17 | 24.76975 | -98.62713 | 24159 ft | 376 kts | 290° |
| 2026-04-28 07:17 | 24.77923 | -98.65397 | 23720 ft | 376 kts | 290° |
| 2026-04-28 07:18 | 24.78870 | -98.68079 | 23243 ft | 376 kts | 290° |
| 2026-04-28 07:18 | 24.79815 | -98.70757 | 22731 ft | 375 kts | 290° |
| 2026-04-28 07:18 | 24.80759 | -98.73433 | 22213 ft | 375 kts | 290° |
| 2026-04-28 07:18 | 24.81699 | -98.76101 | 21727 ft | 374 kts | 290° |
| 2026-04-28 07:19 | 24.82637 | -98.78762 | 21347 ft | 370 kts | 290° |
| 2026-04-28 07:19 | 24.83550 | -98.81355 | 20983 ft | 366 kts | 290° |
| 2026-04-28 07:19 | 24.84464 | -98.83955 | 20619 ft | 362 kts | 290° |
| 2026-04-28 07:19 | 24.85370 | -98.86530 | 20254 ft | 359 kts | 290° |
| 2026-04-28 07:20 | 24.86265 | -98.89080 | 19895 ft | 355 kts | 289° |
| 2026-04-28 07:20 | 24.87151 | -98.91603 | 19546 ft | 352 kts | 289° |
| 2026-04-28 07:20 | 24.88016 | -98.94069 | 19208 ft | 348 kts | 289° |
| 2026-04-28 07:20 | 24.88873 | -98.96514 | 18863 ft | 345 kts | 289° |
| 2026-04-28 07:21 | 24.89733 | -98.98969 | 18577 ft | 341 kts | 289° |
| 2026-04-28 07:21 | 24.90580 | -99.01388 | 18306 ft | 336 kts | 289° |
| 2026-04-28 07:21 | 24.91415 | -99.03771 | 18008 ft | 331 kts | 289° |
| 2026-04-28 07:22 | 24.93054 | -99.08452 | 17383 ft | 324 kts | 290° |
| 2026-04-28 07:22 | 24.94085 | -99.10657 | 17069 ft | 325 kts | 300° |
| 2026-04-28 07:22 | 24.95453 | -99.12636 | 16770 ft | 326 kts | 309° |
| 2026-04-28 07:22 | 24.96994 | -99.14472 | 16485 ft | 325 kts | 310° |
| 2026-04-28 07:23 | 24.98534 | -99.16260 | 16196 ft | 325 kts | 311° |
| 2026-04-28 07:23 | 25.00088 | -99.18060 | 15905 ft | 324 kts | 311° |
| 2026-04-28 07:23 | 25.01641 | -99.19868 | 15618 ft | 324 kts | 311° |
| 2026-04-28 07:23 | 25.03187 | -99.21679 | 15337 ft | 325 kts | 311° |
| 2026-04-28 07:24 | 25.04734 | -99.23497 | 15077 ft | 325 kts | 311° |
| 2026-04-28 07:24 | 25.06268 | -99.25302 | 15011 ft | 320 kts | 310° |
| 2026-04-28 07:24 | 25.07797 | -99.27107 | 15008 ft | 325 kts | 310° |
| 2026-04-28 07:24 | 25.09352 | -99.28946 | 15001 ft | 331 kts | 310° |
| 2026-04-28 07:25 | 25.10927 | -99.30808 | 14997 ft | 331 kts | 311° |
| 2026-04-28 07:25 | 25.12493 | -99.32659 | 14985 ft | 329 kts | 311° |
| 2026-04-28 07:25 | 25.14052 | -99.34504 | 14983 ft | 327 kts | 311° |
| 2026-04-28 07:25 | 25.15583 | -99.36316 | 14987 ft | 326 kts | 311° |
| 2026-04-28 07:26 | 25.17129 | -99.38147 | 14986 ft | 326 kts | 310° |
| 2026-04-28 07:26 | 25.18674 | -99.39977 | 14990 ft | 326 kts | 310° |
| 2026-04-28 07:26 | 25.20224 | -99.41802 | 14993 ft | 326 kts | 313° |
| 2026-04-28 07:26 | 25.22074 | -99.43270 | 14993 ft | 330 kts | 331° |
| 2026-04-28 07:27 | 25.24154 | -99.44369 | 14980 ft | 333 kts | 333° |
| 2026-04-28 07:27 | 25.26278 | -99.45437 | 14766 ft | 337 kts | 333° |
| 2026-04-28 07:27 | 25.28404 | -99.46504 | 14529 ft | 333 kts | 333° |
| 2026-04-28 07:27 | 25.30502 | -99.47567 | 14231 ft | 330 kts | 333° |
| 2026-04-28 07:28 | 25.32582 | -99.48633 | 13934 ft | 327 kts | 333° |
| 2026-04-28 07:28 | 25.34639 | -99.49695 | 13640 ft | 325 kts | 333° |
| 2026-04-28 07:28 | 25.36682 | -99.50755 | 13311 ft | 323 kts | 333° |
| 2026-04-28 07:28 | 25.38708 | -99.51809 | 12988 ft | 321 kts | 333° |
| 2026-04-28 07:29 | 25.40725 | -99.52860 | 12668 ft | 319 kts | 333° |
| 2026-04-28 07:29 | 25.42708 | -99.53893 | 12355 ft | 318 kts | 333° |
| 2026-04-28 07:29 | 25.44648 | -99.54904 | 12051 ft | 317 kts | 333° |
| 2026-04-28 07:29 | 25.46647 | -99.55951 | 11693 ft | 317 kts | 332° |
| 2026-04-28 07:30 | 25.48398 | -99.57397 | 11323 ft | 315 kts | 309° |
| 2026-04-28 07:30 | 25.49639 | -99.59383 | 11002 ft | 311 kts | 300° |
| 2026-04-28 07:30 | 25.50756 | -99.61415 | 10628 ft | 305 kts | 300° |
| 2026-04-28 07:30 | 25.51834 | -99.63410 | 10280 ft | 300 kts | 299° |
| 2026-04-28 07:31 | 25.52901 | -99.65377 | 9932 ft | 295 kts | 300° |
| 2026-04-28 07:31 | 25.53954 | -99.67306 | 9568 ft | 290 kts | 300° |
| 2026-04-28 07:31 | 25.54978 | -99.69172 | 9204 ft | 286 kts | 300° |
| 2026-04-28 07:31 | 25.56011 | -99.71049 | 8832 ft | 282 kts | 300° |
| 2026-04-28 07:32 | 25.57025 | -99.72886 | 8465 ft | 278 kts | 300° |
| 2026-04-28 07:32 | 25.58031 | -99.74710 | 8106 ft | 275 kts | 300° |
| 2026-04-28 07:32 | 25.59028 | -99.76514 | 7703 ft | 274 kts | 300° |
| 2026-04-28 07:32 | 25.60017 | -99.78305 | 7330 ft | 269 kts | 300° |
| 2026-04-28 07:33 | 25.60660 | -99.79469 | 7070 ft | 265 kts | 300° |
| 2026-04-28 07:33 | 25.61451 | -99.80900 | 6747 ft | 259 kts | 300° |
| 2026-04-28 07:33 | 25.62368 | -99.82561 | 6359 ft | 252 kts | 300° |
| 2026-04-28 07:33 | 25.63290 | -99.84194 | 5924 ft | 248 kts | 301° |
| 2026-04-28 07:34 | 25.64220 | -99.85785 | 5484 ft | 243 kts | 300° |
| 2026-04-28 07:34 | 25.65107 | -99.87356 | 5123 ft | 236 kts | 299° |
| 2026-04-28 07:34 | 25.65924 | -99.88840 | 5050 ft | 214 kts | 298° |
| 2026-04-28 07:34 | 25.66662 | -99.90191 | 4946 ft | 197 kts | 298° |
| 2026-04-28 07:35 | 25.67357 | -99.91468 | 4722 ft | 189 kts | 298° |
| 2026-04-28 07:35 | 25.68025 | -99.92696 | 4493 ft | 182 kts | 297° |
| 2026-04-28 07:35 | 25.68666 | -99.93872 | 4317 ft | 175 kts | 297° |
| 2026-04-28 07:35 | 25.69304 | -99.95044 | 4063 ft | 176 kts | 298° |
| 2026-04-28 07:36 | 25.69923 | -99.96181 | 3835 ft | 173 kts | 298° |
| 2026-04-28 07:36 | 25.70538 | -99.97305 | 3631 ft | 166 kts | 298° |
| 2026-04-28 07:36 | 25.71129 | -99.98388 | 3465 ft | 162 kts | 298° |
| 2026-04-28 07:36 | 25.71726 | -99.99485 | 3230 ft | 167 kts | 299° |
| 2026-04-28 07:37 | 25.72317 | -100.00567 | 3013 ft | 162 kts | 299° |
| 2026-04-28 07:37 | 25.72891 | -100.01618 | 2809 ft | 157 kts | 299° |
| 2026-04-28 07:37 | 25.73449 | -100.02641 | 2618 ft | 153 kts | 299° |
| 2026-04-28 07:37 | 25.73989 | -100.03630 | 2432 ft | 150 kts | 300° |
| 2026-04-28 07:38 | 25.74527 | -100.04615 | 2248 ft | 148 kts | 301° |
| 2026-04-28 07:38 | 25.75054 | -100.05580 | 2042 ft | 144 kts | 302° |
| 2026-04-28 07:38 | 25.75568 | -100.06522 | 1847 ft | 140 kts | 302° |
| 2026-04-28 07:38 | 25.76073 | -100.07445 | 1683 ft | 142 kts | 303° |
| 2026-04-28 07:39 | 25.76588 | -100.08388 | 1468 ft | 141 kts | 303° |
| 2026-04-28 07:39 | 25.77116 | -100.09327 | 1307 ft | 146 kts | 301° |
| 2026-04-28 07:39 | 25.77632 | -100.10290 | 1276 ft | 135 kts | 302° |
| 2026-04-28 07:39 | 25.77976 | -100.10926 | 1279 ft | 48 kts | 302° |
| 2026-04-28 07:40 | 25.78039 | -100.11031 | 1281 ft | 11 kts | 304° |
| 2026-04-28 07:40 | 25.78045 | -100.11042 | 1280 ft | 0 kts | 304° |
| 2026-04-28 07:40 | 25.78054 | -100.11057 | 1280 ft | 5 kts | 304° |
| 2026-04-28 07:41 | 25.78076 | -100.11092 | 1280 ft | 6 kts | 304° |
| 2026-04-28 07:41 | 25.78099 | -100.11135 | 1280 ft | 8 kts | 296° |
| 2026-04-28 07:41 | 25.78099 | -100.11195 | 1281 ft | 8 kts | 233° |
| 2026-04-28 07:41 | 25.78057 | -100.11231 | 1280 ft | 7 kts | 214° |
| 2026-04-28 07:42 | 25.78020 | -100.11257 | 1280 ft | 6 kts | 211° |
| 2026-04-28 07:42 | 25.77978 | -100.11278 | 1280 ft | 8 kts | 188° |
| 2026-04-28 07:42 | 25.77913 | -100.11308 | 1280 ft | 6 kts | 210° |
| 2026-04-28 07:42 | 25.77886 | -100.11326 | 1280 ft | 0 kts | 210° |